createdAt,value
2022-09-12T00:00:01.345Z,15.1
2022-09-12T00:01:01.565Z,15.2
2022-09-12T00:02:01.870Z,15
2022-09-12T00:03:01.824Z,15.1
2022-09-12T00:04:01.819Z,14.7
2022-09-12T00:05:01.889Z,15.3
2022-09-12T00:06:01.734Z,15.3
2022-09-12T00:07:01.743Z,15.3
2022-09-12T00:08:01.786Z,15
2022-09-12T00:09:01.602Z,14.5
2022-09-12T00:10:01.648Z,15.3
2022-09-12T00:11:01.455Z,15.3
2022-09-12T00:12:02.529Z,15.5
2022-09-12T00:13:01.326Z,14.7
2022-09-12T00:14:02.377Z,15.9
2022-09-12T00:15:02.191Z,15.4
2022-09-12T00:16:02.063Z,15
2022-09-12T00:17:02.081Z,14.6
2022-09-12T00:18:01.886Z,14.3
2022-09-12T00:19:01.925Z,14.3
2022-09-12T00:20:01.972Z,14.7
2022-09-12T00:21:01.816Z,14.4
2022-09-12T00:22:01.798Z,14.3
2022-09-12T00:23:01.875Z,14.5
2022-09-12T00:24:01.724Z,14.6
2022-09-12T00:25:01.752Z,14.9
2022-09-12T00:26:01.581Z,14.8
2022-09-12T00:27:01.643Z,14.5
2022-09-12T00:28:01.418Z,14.6
2022-09-12T00:29:02.519Z,14.1
2022-09-12T00:30:01.333Z,14.2
2022-09-12T00:31:01.552Z,14.2
2022-09-12T00:32:01.549Z,14
2022-09-12T00:33:01.378Z,14.2
2022-09-12T00:34:02.410Z,14.4
2022-09-12T00:35:02.267Z,14.2
2022-09-12T00:36:02.245Z,14.4
2022-09-12T00:37:02.000Z,14.1
2022-09-12T00:38:02.051Z,14.3
2022-09-12T00:39:01.886Z,14.1
2022-09-12T00:40:01.911Z,14.3
2022-09-12T00:41:02.102Z,14.7
2022-09-12T00:42:01.941Z,14.2
2022-09-12T00:43:01.953Z,14.3
2022-09-12T00:44:01.950Z,14.1
2022-09-12T00:45:02.015Z,14.4
2022-09-12T00:46:02.468Z,14.2
2022-09-12T00:47:01.495Z,14.1
2022-09-12T00:48:01.365Z,14.3
2022-09-12T00:49:02.454Z,14.2
2022-09-12T00:50:02.329Z,13.9
2022-09-12T00:51:02.313Z,13.8
2022-09-12T00:52:02.330Z,14
2022-09-12T00:53:02.165Z,14
2022-09-12T00:54:02.026Z,13.7
2022-09-12T00:55:02.025Z,14.3
2022-09-12T00:56:02.132Z,14.2
2022-09-12T00:57:01.894Z,14.2
2022-09-12T00:58:01.950Z,14
2022-09-12T00:59:01.997Z,14.4
2022-09-12T01:00:01.852Z,14.1
2022-09-12T01:01:01.792Z,14.3
2022-09-12T01:02:02.390Z,14.4
2022-09-12T01:03:01.723Z,14
2022-09-12T01:04:01.817Z,14.3
2022-09-12T01:05:01.573Z,14
2022-09-12T01:06:01.623Z,13.9
2022-09-12T01:07:01.416Z,14
2022-09-12T01:08:02.501Z,14.1
2022-09-12T01:09:01.348Z,13.8
2022-09-12T01:10:02.433Z,14.2
2022-09-12T01:11:02.261Z,14
2022-09-12T01:12:02.290Z,14.1
2022-09-12T01:13:02.102Z,14.2
2022-09-12T01:14:02.171Z,14
2022-09-12T01:15:01.987Z,14.2
2022-09-12T01:16:02.025Z,14
2022-09-12T01:17:02.078Z,13.8
2022-09-12T01:18:01.968Z,14.1
2022-09-12T01:19:01.879Z,13.8
2022-09-12T01:20:01.860Z,13.9
2022-09-12T01:21:01.762Z,13.9
2022-09-12T01:22:01.683Z,13.7
2022-09-12T01:23:01.711Z,13.8
2022-09-12T01:24:01.491Z,14.4
2022-09-12T01:25:01.551Z,14.6
2022-09-12T01:26:01.373Z,14.5
2022-09-12T01:27:02.463Z,14.4
2022-09-12T01:28:02.271Z,13.9
2022-09-12T01:29:02.396Z,13.8
2022-09-12T01:30:02.252Z,13.8
2022-09-12T01:31:02.160Z,13.6
2022-09-12T01:32:02.266Z,13.6
2022-09-12T01:33:02.292Z,14.1
2022-09-12T01:34:02.319Z,13.8
2022-09-12T01:35:02.108Z,14.2
2022-09-12T01:36:02.147Z,14.8
2022-09-12T01:37:01.986Z,14.2
2022-09-12T01:38:02.009Z,14.1
2022-09-12T01:39:02.031Z,14.5
2022-09-12T01:40:01.930Z,14.2
2022-09-12T01:41:02.073Z,14.2
2022-09-12T01:42:02.147Z,14.4
2022-09-12T01:43:01.985Z,14.3
2022-09-12T01:44:01.955Z,14.2
2022-09-12T01:45:01.991Z,13.8
2022-09-12T01:46:01.886Z,14
2022-09-12T01:47:01.992Z,14.1
2022-09-12T01:48:01.990Z,14
2022-09-12T01:49:01.863Z,14.1
2022-09-12T01:50:02.006Z,14.3
2022-09-12T01:51:01.910Z,14.2
2022-09-12T01:52:01.765Z,13.7
2022-09-12T01:53:01.794Z,13.6
2022-09-12T01:54:01.856Z,14.2
2022-09-12T01:55:01.831Z,13.8
2022-09-12T01:56:01.349Z,13.7
2022-09-12T01:57:02.382Z,13.8
2022-09-12T01:58:02.218Z,13.5
2022-09-12T01:59:02.237Z,13.9
2022-09-12T02:00:02.105Z,14.1
2022-09-12T02:01:02.238Z,13.7
2022-09-12T02:02:02.518Z,14
2022-09-12T02:03:01.519Z,14.3
2022-09-12T02:04:01.577Z,14.5
2022-09-12T02:05:01.398Z,14.4
2022-09-12T02:06:02.419Z,13.9
2022-09-12T02:07:02.239Z,14.1
2022-09-12T02:08:02.284Z,14
2022-09-12T02:09:02.095Z,14.1
2022-09-12T02:10:02.099Z,14.5
2022-09-12T02:11:01.918Z,14.1
2022-09-12T02:12:01.903Z,14.8
2022-09-12T02:13:01.890Z,14.7
2022-09-12T02:14:01.680Z,14.4
2022-09-12T02:15:01.663Z,14.2
2022-09-12T02:16:01.486Z,14.4
2022-09-12T02:17:02.589Z,14.5
2022-09-12T02:18:01.396Z,14.2
2022-09-12T02:19:02.477Z,14.5
2022-09-12T02:20:02.277Z,14.1
2022-09-12T02:21:02.312Z,14.3
2022-09-12T02:22:02.112Z,14.7
2022-09-12T02:23:02.153Z,14.1
2022-09-12T02:24:01.974Z,14.5
2022-09-12T02:25:01.928Z,14.1
2022-09-12T02:26:01.958Z,14.2
2022-09-12T02:27:01.787Z,14.3
2022-09-12T02:28:01.756Z,14.5
2022-09-12T02:29:01.747Z,14.8
2022-09-12T02:30:01.558Z,15.2
2022-09-12T02:31:01.752Z,15.3
2022-09-12T02:32:01.895Z,15.2
2022-09-12T02:33:01.697Z,14.8
2022-09-12T02:34:01.720Z,14.6
2022-09-12T02:35:01.485Z,14.3
2022-09-12T02:36:01.587Z,14.3
2022-09-12T02:37:01.394Z,14.7
2022-09-12T02:38:02.465Z,14.1
2022-09-12T02:39:02.336Z,13.8
2022-09-12T02:40:02.401Z,13.9
2022-09-12T02:41:01.376Z,13.7
2022-09-12T02:42:02.404Z,14.3
2022-09-12T02:43:02.228Z,14.4
2022-09-12T02:44:02.229Z,14.3
2022-09-12T02:45:02.066Z,14.9
2022-09-12T02:46:01.965Z,14.7
2022-09-12T02:47:02.118Z,14.5
2022-09-12T02:48:01.991Z,13.8
2022-09-12T02:49:01.996Z,13.6
2022-09-12T02:50:02.066Z,14.5
2022-09-12T02:51:01.938Z,14.1
2022-09-12T02:52:01.968Z,14.1
2022-09-12T02:53:02.042Z,14.4
2022-09-12T02:54:01.857Z,14.2
2022-09-12T02:55:01.781Z,13.6
2022-09-12T02:56:01.861Z,13.9
2022-09-12T02:57:01.630Z,14.1
2022-09-12T02:58:01.671Z,14.3
2022-09-12T02:59:01.451Z,13.6
2022-09-12T03:00:02.521Z,13.3
2022-09-12T03:01:02.264Z,14
2022-09-12T03:02:02.472Z,13.7
2022-09-12T03:03:01.420Z,13.8
2022-09-12T03:04:02.477Z,14.3
2022-09-12T03:05:02.306Z,14.3
2022-09-12T03:06:02.310Z,13.8
2022-09-12T03:07:02.172Z,13.6
2022-09-12T03:08:02.158Z,13.9
2022-09-12T03:09:01.963Z,13.5
2022-09-12T03:10:01.991Z,13.2
2022-09-12T03:11:02.070Z,13.1
2022-09-12T03:12:01.929Z,13.8
2022-09-12T03:13:01.949Z,13.4
2022-09-12T03:14:02.038Z,13.2
2022-09-12T03:15:01.854Z,13.3
2022-09-12T03:16:01.468Z,13.4
2022-09-12T03:17:01.503Z,13.1
2022-09-12T03:18:02.582Z,13.3
2022-09-12T03:19:01.407Z,13.8
2022-09-12T03:20:02.480Z,13.6
2022-09-12T03:21:02.291Z,13.6
2022-09-12T03:22:02.359Z,13.5
2022-09-12T03:23:02.182Z,13.3
2022-09-12T03:24:02.279Z,13.6
2022-09-12T03:25:02.094Z,13.2
2022-09-12T03:26:02.169Z,13.1
2022-09-12T03:27:01.970Z,14.1
2022-09-12T03:28:01.989Z,14
2022-09-12T03:29:02.067Z,13.7
2022-09-12T03:30:01.923Z,13.7
2022-09-12T03:31:02.114Z,13.4
2022-09-12T03:32:02.223Z,13.6
2022-09-12T03:33:02.027Z,13.8
2022-09-12T03:34:02.047Z,13.2
2022-09-12T03:35:01.858Z,13.8
2022-09-12T03:36:01.866Z,13.9
2022-09-12T03:37:01.868Z,13.6
2022-09-12T03:38:01.665Z,13.6
2022-09-12T03:39:01.702Z,13.5
2022-09-12T03:40:01.545Z,13.4
2022-09-12T03:41:01.866Z,13.7
2022-09-12T03:42:01.953Z,13.5
2022-09-12T03:43:01.748Z,14.2
2022-09-12T03:44:01.747Z,13.7
2022-09-12T03:45:01.785Z,13.9
2022-09-12T03:46:01.506Z,13.6
2022-09-12T03:47:01.640Z,13.8
2022-09-12T03:48:01.444Z,13.5
2022-09-12T03:49:01.557Z,13.5
2022-09-12T03:50:01.317Z,13.4
2022-09-12T03:51:02.353Z,13.2
2022-09-12T03:52:02.202Z,13.4
2022-09-12T03:53:02.189Z,13.2
2022-09-12T03:54:01.963Z,13.5
2022-09-12T03:55:02.031Z,13.3
2022-09-12T03:56:01.888Z,13.4
2022-09-12T03:57:01.881Z,13.5
2022-09-12T03:58:01.947Z,13.6
2022-09-12T03:59:01.783Z,13.7
2022-09-12T04:00:01.817Z,13.6
2022-09-12T04:01:01.437Z,13.3
2022-09-12T04:02:01.601Z,13.5
2022-09-12T04:03:01.621Z,13.6
2022-09-12T04:04:01.650Z,13.9
2022-09-12T04:05:01.494Z,13.8
2022-09-12T04:06:01.510Z,13.6
2022-09-12T04:07:02.537Z,13.3
2022-09-12T04:08:01.356Z,13.4
2022-09-12T04:09:02.448Z,13.9
2022-09-12T04:10:02.270Z,14
2022-09-12T04:11:02.272Z,13.9
2022-09-12T04:12:02.094Z,13.9
2022-09-12T04:13:02.131Z,14.3
2022-09-12T04:14:01.886Z,13.6
2022-09-12T04:15:02.135Z,14.2
2022-09-12T04:16:02.206Z,14.1
2022-09-12T04:17:02.218Z,13.8
2022-09-12T04:18:05.662Z,13.6
2022-09-12T04:19:02.031Z,13.2
2022-09-12T04:20:01.970Z,13
2022-09-12T04:21:01.820Z,13.1
2022-09-12T04:22:01.767Z,12.8
2022-09-12T04:23:01.758Z,12.7
2022-09-12T04:24:01.603Z,13.8
2022-09-12T04:25:01.621Z,13.5
2022-09-12T04:26:01.441Z,13.7
2022-09-12T04:27:04.852Z,13.4
2022-09-12T04:28:01.588Z,13.8
2022-09-12T04:29:01.554Z,13.1
2022-09-12T04:30:01.364Z,12.8
2022-09-12T04:31:01.843Z,12.7
2022-09-12T04:32:02.014Z,12.8
2022-09-12T04:33:04.971Z,13.6
2022-09-12T04:34:01.992Z,13.5
2022-09-12T04:35:02.060Z,13.3
2022-09-12T04:36:01.879Z,13.2
2022-09-12T04:37:01.801Z,13.7
2022-09-12T04:38:01.810Z,13.7
2022-09-12T04:39:01.660Z,13.6
2022-09-12T04:40:01.708Z,13.2
2022-09-12T04:41:01.689Z,14.2
2022-09-12T04:42:01.692Z,13.4
2022-09-12T04:43:01.545Z,13.1
2022-09-12T04:44:01.503Z,13
2022-09-12T04:45:02.475Z,12.8
2022-09-12T04:46:02.290Z,13.5
2022-09-12T04:47:02.392Z,13.9
2022-09-12T04:48:02.234Z,13.3
2022-09-12T04:49:02.216Z,13.2
2022-09-12T04:50:01.972Z,13.4
2022-09-12T04:51:02.038Z,13.3
2022-09-12T04:52:01.800Z,13.3
2022-09-12T04:53:01.760Z,13
2022-09-12T04:54:01.707Z,13
2022-09-12T04:55:01.551Z,13.1
2022-09-12T04:56:02.178Z,13.3
2022-09-12T04:57:01.932Z,13.2
2022-09-12T04:58:01.977Z,13.2
2022-09-12T04:59:01.796Z,13.1
2022-09-12T05:00:05.199Z,13.3
2022-09-12T05:01:01.395Z,12.9
2022-09-12T05:02:02.619Z,13.8
2022-09-12T05:03:01.613Z,13.3
2022-09-12T05:04:01.615Z,12.9
2022-09-12T05:05:01.538Z,12.7
2022-09-12T05:06:01.385Z,13.6
2022-09-12T05:07:02.362Z,13.3
2022-09-12T05:08:02.182Z,14.2
2022-09-12T05:09:02.253Z,14
2022-09-12T05:10:02.063Z,13.6
2022-09-12T05:11:02.124Z,13.9
2022-09-12T05:12:04.474Z,13.6
2022-09-12T05:13:01.524Z,13.1
2022-09-12T05:14:01.546Z,13.9
2022-09-12T05:15:01.336Z,13.7
2022-09-12T05:16:01.547Z,14.2
2022-09-12T05:17:02.018Z,13.6
2022-09-12T05:18:02.434Z,13.3
2022-09-12T05:19:02.267Z,13.5
2022-09-12T05:20:02.313Z,14.2
2022-09-12T05:21:02.165Z,14.5
2022-09-12T05:22:02.195Z,14.2
2022-09-12T05:23:02.033Z,13.5
2022-09-12T05:24:02.014Z,13.4
2022-09-12T05:25:02.107Z,13.4
2022-09-12T05:26:01.877Z,13.2
2022-09-12T05:27:01.845Z,13.3
2022-09-12T05:28:01.867Z,13.9
2022-09-12T05:29:01.685Z,13.4
2022-09-12T05:30:01.712Z,13
2022-09-12T05:31:02.451Z,13.9
2022-09-12T05:32:01.410Z,13.6
2022-09-12T05:33:02.408Z,13.2
2022-09-12T05:34:02.229Z,13.5
2022-09-12T05:35:02.290Z,13.8
2022-09-12T05:36:02.117Z,14.2
2022-09-12T05:37:02.078Z,14.2
2022-09-12T05:38:01.879Z,14
2022-09-12T05:39:01.914Z,13.9
2022-09-12T05:40:02.019Z,13.9
2022-09-12T05:41:01.954Z,14
2022-09-12T05:42:01.935Z,13.6
2022-09-12T05:43:01.982Z,13.7
2022-09-12T05:44:01.810Z,13.7
2022-09-12T05:45:01.824Z,14.1
2022-09-12T05:46:01.825Z,14.1
2022-09-12T05:47:01.983Z,14.1
2022-09-12T05:48:01.806Z,14.1
2022-09-12T05:49:01.818Z,13.9
2022-09-12T05:50:01.861Z,13.8
2022-09-12T05:51:01.734Z,14.4
2022-09-12T05:52:01.759Z,13.9
2022-09-12T05:53:01.811Z,13.9
2022-09-12T05:54:01.662Z,13.9
2022-09-12T05:55:01.689Z,13.9
2022-09-12T05:56:01.470Z,13.7
2022-09-12T05:57:01.500Z,13.6
2022-09-12T05:58:02.517Z,14.6
2022-09-12T05:59:01.340Z,14.5
2022-09-12T06:00:02.375Z,14.5
2022-09-12T06:01:01.954Z,13.8
2022-09-12T06:02:02.155Z,13.6
2022-09-12T06:03:02.130Z,13.6
2022-09-12T06:04:02.104Z,13.7
2022-09-12T06:05:02.217Z,13.7
2022-09-12T06:06:02.137Z,14.1
2022-09-12T06:07:01.996Z,13.3
2022-09-12T06:08:01.797Z,13.4
2022-09-12T06:09:01.830Z,14.4
2022-09-12T06:10:01.821Z,14.2
2022-09-12T06:11:02.327Z,13.9
2022-09-12T06:12:01.545Z,14
2022-09-12T06:13:01.600Z,14.6
2022-09-12T06:14:01.395Z,13.8
2022-09-12T06:15:02.420Z,13.8
2022-09-12T06:16:02.263Z,13.6
2022-09-12T06:17:02.352Z,13.5
2022-09-12T06:18:01.394Z,14
2022-09-12T06:19:02.456Z,14.1
2022-09-12T06:20:02.292Z,14.5
2022-09-12T06:21:02.295Z,15.1
2022-09-12T06:22:02.118Z,14.9
2022-09-12T06:23:02.202Z,14.9
2022-09-12T06:24:01.986Z,14.4
2022-09-12T06:25:01.951Z,14.5
2022-09-12T06:26:01.984Z,14.6
2022-09-12T06:27:01.813Z,14.8
2022-09-12T06:28:01.772Z,14.6
2022-09-12T06:29:01.760Z,14.7
2022-09-12T06:30:01.561Z,14.5
2022-09-12T06:31:02.210Z,14.5
2022-09-12T06:32:01.541Z,13.9
2022-09-12T06:33:01.354Z,14.5
2022-09-12T06:34:02.402Z,14.5
2022-09-12T06:35:02.263Z,14.7
2022-09-12T06:36:02.279Z,14.5
2022-09-12T06:37:02.085Z,14.6
2022-09-12T06:38:02.119Z,14.4
2022-09-12T06:39:01.906Z,14.6
2022-09-12T06:40:02.271Z,14.8
2022-09-12T06:41:01.640Z,14.7
2022-09-12T06:42:01.431Z,14.5
2022-09-12T06:43:02.522Z,14.1
2022-09-12T06:44:01.368Z,14.1
2022-09-12T06:45:02.458Z,13.6
2022-09-12T06:46:01.498Z,14.1
2022-09-12T06:47:01.630Z,14.6
2022-09-12T06:48:01.442Z,14.6
2022-09-12T06:49:02.493Z,14.6
2022-09-12T06:50:02.324Z,14.6
2022-09-12T06:51:02.320Z,14.9
2022-09-12T06:52:02.135Z,14.7
2022-09-12T06:53:02.195Z,15
2022-09-12T06:54:02.036Z,15
2022-09-12T06:55:02.067Z,14.9
2022-09-12T06:56:02.128Z,14.7
2022-09-12T06:57:01.982Z,14.7
2022-09-12T06:58:01.948Z,14.8
2022-09-12T06:59:02.011Z,14.7
2022-09-12T07:00:01.794Z,14.7
2022-09-12T07:01:02.105Z,14.4
2022-09-12T07:02:02.246Z,14.6
2022-09-12T07:03:02.437Z,14.3
2022-09-12T07:04:02.244Z,14.5
2022-09-12T07:05:02.329Z,14.9
2022-09-12T07:06:02.147Z,14.8
2022-09-12T07:07:02.201Z,14.7
2022-09-12T07:08:02.071Z,14.9
2022-09-12T07:09:01.994Z,15.2
2022-09-12T07:10:02.057Z,15.5
2022-09-12T07:11:01.906Z,15.3
2022-09-12T07:12:01.899Z,15.2
2022-09-12T07:13:01.859Z,15.2
2022-09-12T07:14:01.697Z,15.1
2022-09-12T07:15:01.762Z,15.3
2022-09-12T07:16:01.562Z,15.5
2022-09-12T07:17:01.630Z,15.3
2022-09-12T07:18:01.676Z,15.5
2022-09-12T07:19:01.763Z,15.3
2022-09-12T07:20:01.554Z,15.3
2022-09-12T07:21:01.576Z,15.3
2022-09-12T07:22:01.404Z,15.1
2022-09-12T07:23:02.454Z,15
2022-09-12T07:24:02.304Z,14.6
2022-09-12T07:25:02.311Z,14.1
2022-09-12T07:26:02.136Z,14.4
2022-09-12T07:27:02.176Z,14.3
2022-09-12T07:28:02.024Z,14.4
2022-09-12T07:29:18.971Z,14.6
2022-09-12T07:30:01.408Z,14.5
2022-09-12T07:31:01.912Z,14.6
2022-09-12T07:32:01.892Z,14.4
2022-09-12T07:33:02.008Z,14.9
2022-09-12T07:34:02.036Z,14.8
2022-09-12T07:35:01.885Z,15.1
2022-09-12T07:36:01.876Z,15.1
2022-09-12T07:37:01.952Z,15.2
2022-09-12T07:38:01.737Z,14.9
2022-09-12T07:39:01.803Z,15.2
2022-09-12T07:40:01.847Z,15.4
2022-09-12T07:41:01.929Z,15.6
2022-09-12T07:42:01.926Z,15.8
2022-09-12T07:43:02.005Z,15.8
2022-09-12T07:44:01.874Z,15.8
2022-09-12T07:45:01.965Z,16
2022-09-12T07:46:01.995Z,16.1
2022-09-12T07:47:02.232Z,16.2
2022-09-12T07:48:02.011Z,16.4
2022-09-12T07:49:02.064Z,16
2022-09-12T07:50:01.869Z,16
2022-09-12T07:51:01.918Z,15.7
2022-09-12T07:52:01.920Z,16
2022-09-12T07:53:01.743Z,16
2022-09-12T07:54:01.804Z,16
2022-09-12T07:55:01.839Z,16
2022-09-12T07:56:01.617Z,16.1
2022-09-12T07:57:01.652Z,16
2022-09-12T07:58:01.455Z,16
2022-09-12T07:59:02.468Z,16.2
2022-09-12T08:00:02.297Z,15.9
2022-09-12T08:01:02.217Z,16
2022-09-12T08:02:02.480Z,15.8
2022-09-12T08:03:01.463Z,15.6
2022-09-12T08:04:01.510Z,15.4
2022-09-12T08:05:02.533Z,15.7
2022-09-12T08:06:01.385Z,15.3
2022-09-12T08:07:02.427Z,15.1
2022-09-12T08:08:02.398Z,15.2
2022-09-12T08:09:02.268Z,15.3
2022-09-12T08:10:02.099Z,14.9
2022-09-12T08:11:02.118Z,15.4
2022-09-12T08:12:01.939Z,15.1
2022-09-12T08:13:01.904Z,15.5
2022-09-12T08:14:01.911Z,15.2
2022-09-12T08:15:01.742Z,15.3
2022-09-12T08:16:01.456Z,15.3
2022-09-12T08:17:01.648Z,15.9
2022-09-12T08:18:01.447Z,15.9
2022-09-12T08:19:01.512Z,16.3
2022-09-12T08:20:01.405Z,16.3
2022-09-12T08:21:02.449Z,16.5
2022-09-12T08:22:02.256Z,16.9
2022-09-12T08:23:02.291Z,17.3
2022-09-12T08:24:02.120Z,16.9
2022-09-12T08:25:02.130Z,17.1
2022-09-12T08:26:05.388Z,17.2
2022-09-12T08:27:02.196Z,17.3
2022-09-12T08:28:02.202Z,17.7
2022-09-12T08:29:01.962Z,17.9
2022-09-12T08:30:02.024Z,18
2022-09-12T08:31:01.655Z,18.1
2022-09-12T08:32:01.776Z,18.3
2022-09-12T08:33:01.533Z,18.1
2022-09-12T08:34:01.572Z,18.4
2022-09-12T08:35:01.395Z,18
2022-09-12T08:36:02.432Z,18.2
2022-09-12T08:37:02.265Z,18.2
2022-09-12T08:38:02.337Z,18.2
2022-09-12T08:39:02.179Z,17.8
2022-09-12T08:40:02.308Z,17.4
2022-09-12T08:41:02.257Z,17.3
2022-09-12T08:42:02.388Z,16.9
2022-09-12T08:43:01.456Z,16.8
2022-09-12T08:44:02.535Z,16.6
2022-09-12T08:45:01.336Z,16.7
2022-09-12T08:46:02.179Z,16.5
2022-09-12T08:47:02.338Z,16.9
2022-09-12T08:48:02.296Z,16.7
2022-09-12T08:49:02.416Z,17.2
2022-09-12T08:50:02.245Z,17.2
2022-09-12T08:51:02.313Z,17.4
2022-09-12T08:52:02.203Z,17.5
2022-09-12T08:53:02.139Z,17.5
2022-09-12T08:54:01.988Z,17.1
2022-09-12T08:55:01.992Z,17.4
2022-09-12T08:56:01.956Z,17.9
2022-09-12T08:57:01.824Z,18.3
2022-09-12T08:58:01.842Z,17.9
2022-09-12T08:59:01.898Z,18.3
2022-09-12T09:00:01.761Z,18.5
2022-09-12T09:01:01.480Z,18.5
2022-09-12T09:02:01.556Z,18.1
2022-09-12T09:03:01.639Z,18
2022-09-12T09:04:01.573Z,17.7
2022-09-12T09:05:01.395Z,17.9
2022-09-12T09:06:02.455Z,17.7
2022-09-12T09:07:02.277Z,17.8
2022-09-12T09:08:02.356Z,17.5
2022-09-12T09:09:02.157Z,17.1
2022-09-12T09:10:02.176Z,16.6
2022-09-12T09:11:02.063Z,17.1
2022-09-12T09:12:01.978Z,17.6
2022-09-12T09:13:02.038Z,17.8
2022-09-12T09:14:04.971Z,17.9
2022-09-12T09:15:02.337Z,17.9
2022-09-12T09:16:02.373Z,18.5
2022-09-12T09:17:01.645Z,18.4
2022-09-12T09:18:01.440Z,17.9
2022-09-12T09:19:01.479Z,18.2
2022-09-12T09:20:02.484Z,18
2022-09-12T09:21:02.328Z,18.1
2022-09-12T09:22:02.319Z,18.5
2022-09-12T09:23:02.159Z,18.8
2022-09-12T09:24:02.115Z,18.6
2022-09-12T09:25:01.928Z,18.4
2022-09-12T09:26:01.934Z,17.7
2022-09-12T09:27:02.042Z,18.3
2022-09-12T09:28:01.821Z,18.3
2022-09-12T09:29:01.884Z,17.7
2022-09-12T09:30:01.917Z,17.5
2022-09-12T09:31:01.511Z,17.5
2022-09-12T09:32:01.745Z,17
2022-09-12T09:33:01.597Z,17.6
2022-09-12T09:34:01.567Z,17.7
2022-09-12T09:35:01.386Z,18.4
2022-09-12T09:36:02.459Z,18.8
2022-09-12T09:37:02.307Z,18.7
2022-09-12T09:38:02.405Z,18.4
2022-09-12T09:39:02.243Z,18.3
2022-09-12T09:40:02.384Z,18.1
2022-09-12T09:41:01.431Z,18.3
2022-09-12T09:42:02.412Z,18.2
2022-09-12T09:43:02.234Z,18.6
2022-09-12T09:44:02.244Z,18.3
2022-09-12T09:45:02.246Z,17.8
2022-09-12T09:46:02.107Z,17.6
2022-09-12T09:47:02.338Z,17.7
2022-09-12T09:48:02.162Z,18.7
2022-09-12T09:49:02.191Z,19.2
2022-09-12T09:50:02.070Z,19
2022-09-12T09:51:02.139Z,19
2022-09-12T09:52:02.114Z,19.4
2022-09-12T09:53:01.939Z,19.4
2022-09-12T09:54:01.935Z,19.4
2022-09-12T09:55:01.983Z,19.3
2022-09-12T09:56:01.841Z,19.3
2022-09-12T09:57:01.766Z,18.8
2022-09-12T09:58:01.763Z,18.8
2022-09-12T09:59:01.620Z,18.5
2022-09-12T10:00:01.638Z,18.4
2022-09-12T10:01:02.537Z,18.4
2022-09-12T10:02:01.545Z,18.5
2022-09-12T10:03:01.853Z,18.5
2022-09-12T10:04:01.726Z,18.8
2022-09-12T10:05:01.758Z,19.1
2022-09-12T10:06:01.648Z,19.3
2022-09-12T10:07:01.639Z,18.9
2022-09-12T10:08:01.455Z,19.5
2022-09-12T10:09:02.505Z,19.7
2022-09-12T10:10:01.359Z,19.7
2022-09-12T10:11:02.441Z,20.2
2022-09-12T10:12:02.305Z,20.6
2022-09-12T10:13:02.352Z,20.1
2022-09-12T10:14:02.159Z,19.5
2022-09-12T10:15:02.191Z,19.5
2022-09-12T10:16:01.742Z,20.1
2022-09-12T10:17:01.918Z,19.9
2022-09-12T10:18:01.710Z,19.5
2022-09-12T10:19:01.746Z,20.1
2022-09-12T10:20:20.257Z,20.4
2022-09-12T10:21:01.810Z,20.1
2022-09-12T10:22:01.808Z,20
2022-09-12T10:23:01.875Z,19.7
2022-09-12T10:24:01.672Z,19.3
2022-09-12T10:25:01.662Z,19.1
2022-09-12T10:26:01.537Z,19.8
2022-09-12T10:27:01.569Z,19.8
2022-09-12T10:28:01.441Z,19.3
2022-09-12T10:29:02.458Z,19.1
2022-09-12T10:30:02.361Z,19.3
2022-09-12T10:31:01.671Z,19.6
2022-09-12T10:32:01.884Z,19.7
2022-09-12T10:33:01.742Z,19.2
2022-09-12T10:34:01.660Z,19.2
2022-09-12T10:35:01.675Z,19
2022-09-12T10:36:01.461Z,19.2
2022-09-12T10:37:01.495Z,18.8
2022-09-12T10:38:02.510Z,18.9
2022-09-12T10:39:01.402Z,19.3
2022-09-12T10:40:02.429Z,19.3
2022-09-12T10:41:01.416Z,19.3
2022-09-12T10:42:02.447Z,19.2
2022-09-12T10:43:01.721Z,19.6
2022-09-12T10:44:01.753Z,20
2022-09-12T10:45:01.534Z,20.1
2022-09-12T10:46:01.468Z,19.9
2022-09-12T10:47:01.633Z,19.9
2022-09-12T10:48:05.591Z,20.2
2022-09-12T10:49:01.486Z,20
2022-09-12T10:50:01.525Z,20.1
2022-09-12T10:51:01.381Z,20
2022-09-12T10:52:02.381Z,20.3
2022-09-12T10:53:02.457Z,20.3
2022-09-12T10:54:02.273Z,20.9
2022-09-12T10:55:02.152Z,20.2
2022-09-12T10:56:01.995Z,20.9
2022-09-12T10:57:01.860Z,21.4
2022-09-12T10:58:01.737Z,21.4
2022-09-12T10:59:01.634Z,20.7
2022-09-12T11:00:01.476Z,20.8
2022-09-12T11:01:02.303Z,21
2022-09-12T11:02:01.424Z,20.3
2022-09-12T11:03:01.551Z,20.2
2022-09-12T11:04:01.387Z,20.1
2022-09-12T11:05:02.340Z,20.1
2022-09-12T11:06:02.224Z,20.5
2022-09-12T11:07:02.052Z,20.6
2022-09-12T11:08:01.856Z,20.3
2022-09-12T11:09:01.793Z,20.2
2022-09-12T11:10:01.565Z,19.1
2022-09-12T11:11:01.429Z,19.7
2022-09-12T11:12:02.345Z,20.2
2022-09-12T11:13:02.197Z,20
2022-09-12T11:14:02.072Z,20.4
2022-09-12T11:15:01.866Z,20.7
2022-09-12T11:16:01.718Z,20.4
2022-09-12T11:17:01.678Z,20.7
2022-09-12T11:18:01.495Z,20.8
2022-09-12T11:19:01.360Z,20.6
2022-09-12T11:20:02.270Z,20.4
2022-09-12T11:21:02.138Z,20.8
2022-09-12T11:22:01.996Z,20.6
2022-09-12T11:23:01.886Z,20.8
2022-09-12T11:24:01.677Z,21.1
2022-09-12T11:25:01.598Z,21.2
2022-09-12T11:26:01.399Z,20.9
2022-09-12T11:27:02.299Z,21.3
2022-09-12T11:28:02.176Z,21.7
2022-09-12T11:29:01.987Z,21.8
2022-09-12T11:30:01.914Z,21.8
2022-09-12T11:31:01.708Z,21.8
2022-09-12T11:32:01.576Z,21.4
2022-09-12T11:33:01.433Z,21.5
2022-09-12T11:34:01.346Z,20.8
2022-09-12T11:35:02.245Z,20.5
2022-09-12T11:36:02.118Z,21
2022-09-12T11:37:01.974Z,21.5
2022-09-12T11:38:01.871Z,21.8
2022-09-12T11:39:01.719Z,22
2022-09-12T11:40:01.621Z,22.1
2022-09-12T11:41:01.666Z,22.1
2022-09-12T11:42:01.490Z,21.7
2022-09-12T11:43:01.333Z,22.1
2022-09-12T11:44:02.215Z,22
2022-09-12T11:45:02.079Z,21.5
2022-09-12T11:46:01.799Z,21.2
2022-09-12T11:47:01.717Z,20.8
2022-09-12T11:48:01.596Z,21.6
2022-09-12T11:49:01.422Z,21.8
2022-09-12T11:50:02.334Z,22
2022-09-12T11:51:02.241Z,21.8
2022-09-12T11:52:02.025Z,22.1
2022-09-12T11:53:01.929Z,22.2
2022-09-12T11:54:01.825Z,22.4
2022-09-12T11:55:01.653Z,22.1
2022-09-12T11:56:01.745Z,21.8
2022-09-12T11:57:01.560Z,22.2
2022-09-12T11:58:01.400Z,21.7
2022-09-12T11:59:02.277Z,21.3
2022-09-12T12:00:02.136Z,21.8
2022-09-12T12:01:01.888Z,21.6
2022-09-12T12:02:01.768Z,21.9
2022-09-12T12:03:01.840Z,22.2
2022-09-12T12:04:01.753Z,22.1
2022-09-12T12:05:01.702Z,20.9
2022-09-12T12:06:01.532Z,20.6
2022-09-12T12:07:01.562Z,21.2
2022-09-12T12:08:01.650Z,20.6
2022-09-12T12:09:01.452Z,20.3
2022-09-12T12:10:01.370Z,21.1
2022-09-12T12:11:02.381Z,20.6
2022-09-12T12:12:02.216Z,21.2
2022-09-12T12:13:02.073Z,21.3
2022-09-12T12:14:01.911Z,21.3
2022-09-12T12:15:01.810Z,21
2022-09-12T12:16:01.801Z,21.1
2022-09-12T12:17:01.985Z,21
2022-09-12T12:18:01.803Z,21.9
2022-09-12T12:19:01.686Z,22
2022-09-12T12:20:05.723Z,21.6
2022-09-12T12:21:01.416Z,22
2022-09-12T12:22:02.278Z,21.8
2022-09-12T12:23:02.140Z,20.8
2022-09-12T12:24:01.966Z,20.9
2022-09-12T12:25:01.800Z,20.9
2022-09-12T12:26:01.638Z,21.2
2022-09-12T12:27:01.511Z,21.5
2022-09-12T12:28:01.386Z,20.9
2022-09-12T12:29:01.374Z,21.3
2022-09-12T12:30:02.268Z,21.6
2022-09-12T12:31:02.275Z,21.4
2022-09-12T12:32:01.643Z,21
2022-09-12T12:33:01.459Z,21.5
2022-09-12T12:34:01.543Z,21.9
2022-09-12T12:35:01.325Z,22.1
2022-09-12T12:36:02.435Z,22.4
2022-09-12T12:37:05.577Z,22.5
2022-09-12T12:38:02.284Z,22
2022-09-12T12:39:02.338Z,22.1
2022-09-12T12:40:02.216Z,22
2022-09-12T12:41:02.462Z,21.7
2022-09-12T12:42:02.443Z,22.4
2022-09-12T12:43:02.301Z,22.7
2022-09-12T12:44:02.134Z,22.6
2022-09-12T12:45:02.197Z,22.3
2022-09-12T12:46:01.833Z,22.7
2022-09-12T12:47:02.020Z,22.8
2022-09-12T12:48:05.048Z,22.6
2022-09-12T12:49:01.956Z,22
2022-09-12T12:50:01.923Z,22.7
2022-09-12T12:51:01.987Z,23.1
2022-09-12T12:52:01.770Z,23
2022-09-12T12:53:01.847Z,22.7
2022-09-12T12:54:01.809Z,22.7
2022-09-12T12:55:01.665Z,23
2022-09-12T12:56:01.690Z,22.7
2022-09-12T12:57:01.512Z,22.4
2022-09-12T12:58:01.603Z,21.7
2022-09-12T12:59:01.544Z,20.9
2022-09-12T13:00:01.370Z,21.3
2022-09-12T13:01:01.383Z,21.5
2022-09-12T13:02:02.470Z,21.9
2022-09-12T13:03:01.473Z,21.6
2022-09-12T13:04:01.526Z,21.1
2022-09-12T13:05:01.527Z,21.6
2022-09-12T13:06:01.391Z,20.6
2022-09-12T13:07:05.937Z,20.3
2022-09-12T13:08:01.379Z,20.5
2022-09-12T13:09:02.390Z,19.4
2022-09-12T13:10:02.338Z,20.3
2022-09-12T13:11:02.161Z,20.4
2022-09-12T13:12:02.032Z,20.5
2022-09-12T13:13:02.022Z,21.1
2022-09-12T13:14:02.035Z,21.2
2022-09-12T13:15:01.795Z,21.3
2022-09-12T13:16:01.584Z,21.6
2022-09-12T13:17:01.920Z,21.9
2022-09-12T13:18:01.744Z,21.7
2022-09-12T13:19:01.770Z,21.7
2022-09-12T13:20:24.013Z,21.4
2022-09-12T13:21:02.429Z,21.8
2022-09-12T13:22:02.251Z,21.9
2022-09-12T13:23:02.279Z,22.1